Time;durP1;ratioP1;P1;durP2;ratioP2;P2;SDS_P1;SDS_P2;PMS_P1;PMS_P2;Temp;Humidity;BMP_temperature;BMP_pressure;BME280_temperature;BME280_humidity;BME280_pressure;Samples;Min_cycle;Max_cycle;Signal;HPM_P1;HPM_P2
2023/09/23 00:01:04;;;;;;;0.93;0.50;;;;;;;13.16;100.00;99953.09;6026066;28;20041;-63
2023/09/23 00:03:59;;;;;;;0.68;0.40;;;;;;;13.11;100.00;99958.97;6017375;28;20034;-64
2023/09/23 00:06:55;;;;;;;1.70;0.53;;;;;;;13.00;100.00;99962.03;6022652;28;20441;-64
2023/09/23 00:09:51;;;;;;;0.77;0.32;;;;;;;12.92;100.00;99962.09;6026458;28;20035;-64
2023/09/23 00:12:46;;;;;;;1.85;0.70;;;;;;;12.91;100.00;99973.72;6025769;28;20026;-63
2023/09/23 00:15:42;;;;;;;1.43;0.80;;;;;;;12.85;100.00;99978.97;6025607;28;20119;-63
2023/09/23 00:18:38;;;;;;;1.00;0.22;;;;;;;12.78;100.00;99978.81;6026574;28;20097;-64
2023/09/23 00:21:33;;;;;;;1.35;0.52;;;;;;;12.69;100.00;99963.94;6026121;28;20116;-64
2023/09/23 00:24:29;;;;;;;0.60;0.20;;;;;;;12.77;100.00;99976.38;6017543;28;20097;-64
2023/09/23 00:27:28;;;;;;;2.53;0.60;;;;;;;12.75;100.00;99989.00;6023866;28;20076;-64
2023/09/23 00:30:23;;;;;;;1.35;0.50;;;;;;;12.79;100.00;99993.81;6023457;28;20034;-63
2023/09/23 00:33:19;;;;;;;1.42;0.52;;;;;;;12.80;100.00;99982.13;6025753;28;20034;-63
2023/09/23 00:36:14;;;;;;;1.53;0.50;;;;;;;12.72;100.00;99979.53;6025135;28;20509;-64
2023/09/23 00:39:10;;;;;;;0.70;0.43;;;;;;;12.73;100.00;99996.34;6026037;28;20114;-64
2023/09/23 00:42:05;;;;;;;1.17;0.40;;;;;;;12.65;100.00;99999.88;6026057;28;20037;-63
2023/09/23 00:45:00;;;;;;;1.53;0.60;;;;;;;12.54;100.00;99994.97;6019652;28;20425;-64
2023/09/23 00:47:56;;;;;;;0.77;0.47;;;;;;;12.51;100.00;100014.75;6025519;28;20029;-64
2023/09/23 00:50:53;;;;;;;1.45;0.60;;;;;;;12.27;100.00;100006.94;6025708;28;20034;-64
2023/09/23 00:53:50;;;;;;;1.08;0.50;;;;;;;12.22;100.00;100005.78;6025495;28;20038;-64
2023/09/23 00:56:46;;;;;;;1.20;0.47;;;;;;;12.15;100.00;100004.84;6025080;28;20042;-63
2023/09/23 00:59:43;;;;;;;0.75;0.38;;;;;;;12.12;100.00;100007.84;6024936;28;20085;-64
2023/09/23 01:02:38;;;;;;;0.95;0.52;;;;;;;12.20;100.00;100010.47;6022386;28;20112;-64
2023/09/23 01:05:34;;;;;;;0.50;0.37;;;;;;;12.16;100.00;100009.13;6025492;28;20042;-64
2023/09/23 01:08:29;;;;;;;0.70;0.38;;;;;;;12.27;100.00;100012.25;6025438;28;20117;-63
2023/09/23 01:11:27;;;;;;;1.58;0.40;;;;;;;12.35;100.00;100020.19;6025330;28;20504;-63
2023/09/23 01:14:22;;;;;;;2.03;0.60;;;;;;;12.40;100.00;100015.16;6024794;28;20034;-64
2023/09/23 01:17:17;;;;;;;0.60;0.40;;;;;;;12.34;100.00;100007.03;6015936;28;20089;-64
2023/09/23 01:20:13;;;;;;;1.55;0.57;;;;;;;12.47;100.00;100007.31;6024103;28;20154;-64
2023/09/23 01:23:12;;;;;;;0.83;0.40;;;;;;;12.52;100.00;100027.06;6025459;28;20109;-64
2023/09/23 01:26:10;;;;;;;3.20;0.60;;;;;;;12.52;100.00;100026.25;6024666;28;20285;-64
2023/09/23 01:29:07;;;;;;;2.17;0.50;;;;;;;12.41;100.00;100000.03;6024392;28;20034;-64
2023/09/23 01:32:03;;;;;;;0.50;0.30;;;;;;;12.48;100.00;100032.91;6022871;28;20018;-64
2023/09/23 01:35:03;;;;;;;3.58;0.50;;;;;;;12.36;100.00;100036.97;6024916;28;20045;-64
2023/09/23 01:37:59;;;;;;;2.15;0.60;;;;;;;12.23;100.00;100032.19;6021485;28;20043;-64
2023/09/23 01:40:54;;;;;;;2.45;0.57;;;;;;;12.25;100.00;100040.00;6020804;28;20038;-64
2023/09/23 01:43:49;;;;;;;3.57;0.70;;;;;;;12.35;100.00;100045.94;6025015;28;20046;-64
2023/09/23 01:46:45;;;;;;;1.40;0.80;;;;;;;12.38;100.00;100048.25;6024134;28;20273;-63
2023/09/23 01:49:42;;;;;;;1.43;0.67;;;;;;;12.39;100.00;100053.38;6024527;28;20041;-63
2023/09/23 01:52:40;;;;;;;1.27;0.40;;;;;;;12.40;100.00;100040.91;6024423;28;20121;-64
2023/09/23 01:55:37;;;;;;;1.17;0.63;;;;;;;12.50;100.00;100038.88;6022232;28;20042;-64
2023/09/23 01:58:32;;;;;;;0.73;0.47;;;;;;;12.54;100.00;100056.13;6024102;28;20117;-63
2023/09/23 02:01:27;;;;;;;1.90;0.83;;;;;;;12.51;100.00;100062.63;6024767;28;20034;-63
2023/09/23 02:04:23;;;;;;;1.10;0.38;;;;;;;12.43;100.00;100067.16;6024625;28;20278;-64
2023/09/23 02:07:18;;;;;;;1.73;0.60;;;;;;;12.39;100.00;100057.91;6024151;28;20050;-64
2023/09/23 02:10:15;;;;;;;1.95;0.47;;;;;;;12.47;100.00;100073.81;6016990;28;20141;-63
2023/09/23 02:13:10;;;;;;;1.13;0.50;;;;;;;12.38;100.00;100061.53;6024944;28;20401;-64
2023/09/23 02:16:06;;;;;;;1.27;0.40;;;;;;;12.42;100.00;100060.19;6024226;28;20034;-63
2023/09/23 02:19:02;;;;;;;0.85;0.47;;;;;;;12.50;100.00;100073.47;6028461;28;20031;-64
2023/09/23 02:21:57;;;;;;;1.17;0.40;;;;;;;12.40;100.00;100070.16;6029028;28;20061;-64
2023/09/23 02:24:54;;;;;;;1.03;0.43;;;;;;;12.55;100.00;100074.56;6028511;28;20035;-64
2023/09/23 02:27:49;;;;;;;2.25;0.50;;;;;;;12.47;100.00;100071.94;6027765;28;20038;-63
2023/09/23 02:30:44;;;;;;;1.48;0.40;;;;;;;12.48;100.00;100062.97;6028801;28;20080;-63
2023/09/23 02:33:40;;;;;;;0.55;0.47;;;;;;;12.41;100.00;100066.53;6028912;28;20404;-64
2023/09/23 02:36:37;;;;;;;1.73;1.17;;;;;;;12.48;100.00;100081.59;6027556;28;20093;-64
2023/09/23 02:39:32;;;;;;;0.90;0.40;;;;;;;12.36;100.00;100066.22;6027958;28;20499;-64
2023/09/23 02:42:27;;;;;;;1.63;0.60;;;;;;;12.49;100.00;100085.94;6028802;28;20041;-63
2023/09/23 02:45:23;;;;;;;0.70;0.50;;;;;;;12.54;100.00;100082.72;6027987;28;20075;-64
2023/09/23 02:48:19;;;;;;;2.30;0.60;;;;;;;12.55;100.00;100089.72;6023844;28;20038;-64
2023/09/23 02:51:15;;;;;;;1.05;0.43;;;;;;;12.54;100.00;100088.88;6027092;28;20030;-63
2023/09/23 02:54:13;;;;;;;0.90;0.53;;;;;;;12.66;100.00;100097.31;6027004;28;20030;-63
2023/09/23 02:57:12;;;;;;;2.08;0.50;;;;;;;12.54;100.00;100088.06;6029137;28;20034;-63
2023/09/23 03:00:20;;;;;;;2.33;0.68;;;;;;;12.45;100.00;100086.44;6027934;28;20105;-64
2023/09/23 03:03:19;;;;;;;0.75;0.50;;;;;;;12.46;100.00;100112.03;6028268;28;20105;-63
2023/09/23 03:06:15;;;;;;;2.28;0.55;;;;;;;12.25;100.00;100109.13;6026758;28;20396;-63
2023/09/23 03:09:12;;;;;;;1.85;0.60;;;;;;;12.13;100.00;100110.47;6026010;28;20468;-64
2023/09/23 03:12:08;;;;;;;0.85;0.43;;;;;;;11.98;100.00;100113.03;6026864;28;20042;-64
2023/09/23 03:15:14;;;;;;;2.08;0.70;;;;;;;11.58;100.00;100065.22;6024024;28;20034;-63
2023/09/23 03:18:09;;;;;;;1.40;0.73;;;;;;;11.79;100.00;100124.03;6027035;28;20034;-63
2023/09/23 03:21:10;;;;;;;1.75;0.80;;;;;;;11.64;100.00;100121.19;6027266;28;20034;-64
2023/09/23 03:24:06;;;;;;;2.58;0.82;;;;;;;11.70;100.00;100141.78;6027784;28;20039;-64
2023/09/23 03:27:02;;;;;;;1.73;0.90;;;;;;;11.55;100.00;100114.19;6025527;28;20023;-64
2023/09/23 03:29:57;;;;;;;1.95;0.82;;;;;;;11.68;100.00;100142.94;6025913;28;20045;-63
2023/09/23 03:32:53;;;;;;;6.22;1.20;;;;;;;11.63;100.00;100146.06;6027469;28;20421;-63
2023/09/23 03:35:49;;;;;;;1.65;1.00;;;;;;;11.65;100.00;100148.56;6026158;28;20045;-64
2023/09/23 03:38:46;;;;;;;2.05;1.00;;;;;;;11.59;100.00;100138.59;6026957;28;20481;-63
2023/09/23 03:41:44;;;;;;;3.92;0.98;;;;;;;11.58;100.00;100160.84;6026641;28;20119;-63
2023/09/23 03:44:39;;;;;;;2.42;0.98;;;;;;;11.64;100.00;100155.69;6027020;28;20104;-63
2023/09/23 03:47:36;;;;;;;1.40;0.83;;;;;;;11.81;100.00;100178.66;6025879;28;20034;-64
2023/09/23 03:50:32;;;;;;;2.08;1.08;;;;;;;11.79;100.00;100147.94;6026426;28;20031;-64
2023/09/23 03:53:28;;;;;;;4.97;1.30;;;;;;;11.84;100.00;100165.03;6026879;28;20061;-63
2023/09/23 03:56:24;;;;;;;1.90;1.00;;;;;;;11.98;100.00;100182.13;6027729;28;20080;-64
2023/09/23 03:59:20;;;;;;;2.03;1.10;;;;;;;12.06;100.00;100189.25;6026416;28;20038;-64
2023/09/23 04:02:15;;;;;;;5.05;1.70;;;;;;;12.03;100.00;100200.22;6026787;28;20062;-64
2023/09/23 04:05:10;;;;;;;2.30;1.17;;;;;;;11.97;100.00;100206.19;6026291;28;20073;-64
2023/09/23 04:08:06;;;;;;;3.83;1.10;;;;;;;11.93;100.00;100208.34;6023082;28;20375;-64
2023/09/23 04:11:05;;;;;;;3.97;1.50;;;;;;;11.80;100.00;100184.94;6021951;28;20038;-64
2023/09/23 04:14:00;;;;;;;2.15;1.30;;;;;;;11.97;100.00;100217.66;6020207;28;20034;-63
2023/09/23 04:16:56;;;;;;;2.67;1.43;;;;;;;12.01;100.00;100213.69;6021019;28;20045;-64
2023/09/23 04:19:53;;;;;;;5.60;1.65;;;;;;;12.10;100.00;100222.44;6019098;28;20280;-64
2023/09/23 04:22:49;;;;;;;2.28;1.15;;;;;;;12.20;100.00;100239.06;6024781;28;20046;-64
2023/09/23 04:25:44;;;;;;;4.03;1.60;;;;;;;12.24;100.00;100240.38;6023759;28;20086;-64
2023/09/23 04:28:39;;;;;;;3.20;1.60;;;;;;;12.31;100.00;100246.69;6022515;28;20112;-63
2023/09/23 04:31:35;;;;;;;3.53;1.43;;;;;;;12.30;100.00;100250.34;6025747;28;20030;-64
2023/09/23 04:34:35;;;;;;;2.43;1.50;;;;;;;12.35;100.00;100251.50;6025706;28;20045;-63
2023/09/23 04:37:33;;;;;;;3.42;1.55;;;;;;;12.34;100.00;100257.81;6025156;28;20041;-64
2023/09/23 04:40:29;;;;;;;2.88;1.55;;;;;;;12.32;100.00;100256.31;6024665;28;20046;-63
2023/09/23 04:43:25;;;;;;;2.77;1.67;;;;;;;12.29;100.00;100259.31;6025993;28;20437;-64
2023/09/23 04:46:20;;;;;;;3.28;1.58;;;;;;;12.20;100.00;100253.16;6024741;28;20305;-64
2023/09/23 04:49:16;;;;;;;3.20;1.50;;;;;;;12.24;100.00;100275.78;6024243;28;20084;-63
2023/09/23 04:52:11;;;;;;;2.60;1.50;;;;;;;12.14;100.00;100267.16;6024019;28;20044;-63
2023/09/23 04:55:07;;;;;;;2.27;1.40;;;;;;;12.15;100.00;100268.00;6026441;28;20038;-63
2023/09/23 04:58:02;;;;;;;2.63;1.45;;;;;;;12.11;100.00;100287.91;6025299;28;20470;-64
2023/09/23 05:00:59;;;;;;;3.50;1.70;;;;;;;12.02;100.00;100289.72;6025218;28;20477;-63
2023/09/23 05:03:55;;;;;;;4.28;2.05;;;;;;;11.88;100.00;100293.88;6025874;28;20041;-64
2023/09/23 05:06:50;;;;;;;2.70;1.40;;;;;;;11.83;100.00;100306.81;6024934;28;20089;-63
2023/09/23 05:09:46;;;;;;;4.82;1.40;;;;;;;11.80;100.00;100312.47;6025421;28;20397;-63
2023/09/23 05:12:43;;;;;;;3.55;2.00;;;;;;;11.72;100.00;100298.31;6024925;28;20436;-64
2023/09/23 05:15:39;;;;;;;2.83;1.60;;;;;;;11.76;100.00;100316.44;6024861;28;20031;-63
2023/09/23 05:18:34;;;;;;;3.17;1.70;;;;;;;11.67;100.00;100309.41;6025646;28;20097;-64
2023/09/23 05:21:29;;;;;;;4.10;1.80;;;;;;;11.52;100.00;100300.44;6024980;28;20495;-64
2023/09/23 05:24:26;;;;;;;3.03;1.60;;;;;;;11.39;100.00;100305.34;6025036;28;20039;-64
2023/09/23 05:27:22;;;;;;;4.85;2.40;;;;;;;11.39;100.00;100329.25;6022094;28;20097;-63
2023/09/23 05:30:18;;;;;;;5.82;2.38;;;;;;;11.28;100.00;100317.09;6023477;28;20031;-64
2023/09/23 05:33:14;;;;;;;4.78;2.47;;;;;;;11.26;100.00;100320.91;6025562;28;20117;-63
2023/09/23 05:36:10;;;;;;;4.63;2.83;;;;;;;11.20;100.00;100316.22;6016067;28;20421;-63
2023/09/23 05:39:05;;;;;;;4.10;2.20;;;;;;;11.21;100.00;100332.00;6021777;28;20121;-64
2023/09/23 05:42:02;;;;;;;6.97;2.93;;;;;;;11.15;100.00;100335.28;6021748;28;20057;-63
2023/09/23 05:44:57;;;;;;;4.88;2.80;;;;;;;11.06;100.00;100330.94;6020533;28;20363;-64
2023/09/23 05:47:53;;;;;;;6.13;3.17;;;;;;;11.10;100.00;100334.09;6019448;28;20046;-63
2023/09/23 05:50:49;;;;;;;6.38;3.55;;;;;;;11.22;100.00;100356.72;6019721;28;20052;-63
2023/09/23 05:53:44;;;;;;;7.72;4.25;;;;;;;11.19;100.00;100346.44;6026737;28;20088;-63
2023/09/23 05:56:39;;;;;;;5.87;3.63;;;;;;;11.36;100.00;100366.72;6031228;28;20057;-64
2023/09/23 05:59:35;;;;;;;6.20;3.63;;;;;;;11.44;100.00;100363.28;6026052;28;20026;-64
2023/09/23 06:02:30;;;;;;;6.70;3.90;;;;;;;11.56;100.00;100364.66;6020230;28;20462;-63
2023/09/23 06:05:25;;;;;;;8.57;4.97;;;;;;;11.52;100.00;100356.19;6028751;28;20113;-63
2023/09/23 06:08:21;;;;;;;7.67;4.30;;;;;;;11.66;100.00;100368.03;6027285;28;20049;-64
2023/09/23 06:11:17;;;;;;;8.68;4.93;;;;;;;11.68;100.00;100361.56;6028985;28;20026;-63
2023/09/23 06:14:12;;;;;;;10.43;5.55;;;;;;;11.98;100.00;100372.63;6029045;28;20401;-63
2023/09/23 06:17:07;;;;;;;8.97;5.23;;;;;;;12.01;100.00;100374.94;6028328;28;20045;-63
2023/09/23 06:20:03;;;;;;;9.70;5.80;;;;;;;12.15;100.00;100367.16;6025970;28;20408;-64
2023/09/23 06:22:59;;;;;;;13.20;5.50;;;;;;;12.32;100.00;100378.63;6028475;28;20049;-63
2023/09/23 06:25:56;;;;;;;10.13;5.35;;;;;;;12.37;100.00;100394.91;6027593;28;20026;-63
2023/09/23 06:28:51;;;;;;;9.40;5.45;;;;;;;12.47;100.00;100399.06;6028252;28;20479;-63
2023/09/23 06:31:46;;;;;;;10.47;5.83;;;;;;;12.46;100.00;100410.72;6025503;28;20034;-63
2023/09/23 06:34:42;;;;;;;8.70;5.25;;;;;;;12.49;100.00;100399.75;6028087;28;20034;-64
2023/09/23 06:37:37;;;;;;;10.47;5.43;;;;;;;12.71;100.00;100414.22;6022160;28;20034;-63
2023/09/23 06:40:32;;;;;;;10.32;6.40;;;;;;;12.79;100.00;100411.56;6027312;28;20499;-63
2023/09/23 06:43:28;;;;;;;9.67;6.53;;;;;;;12.75;100.00;100391.59;6026958;28;20042;-64
2023/09/23 06:46:24;;;;;;;8.75;5.43;;;;;;;12.98;100.00;100411.19;6021200;28;20034;-64
2023/09/23 06:49:19;;;;;;;11.73;5.83;;;;;;;13.01;100.00;100408.19;6023482;28;20096;-64
2023/09/23 06:52:14;;;;;;;9.40;5.60;;;;;;;13.03;100.00;100405.34;6027185;28;20030;-63
2023/09/23 06:55:10;;;;;;;10.20;5.70;;;;;;;12.95;100.00;100411.53;6027569;28;20046;-63
2023/09/23 06:58:05;;;;;;;11.20;5.23;;;;;;;13.09;100.00;100429.50;6026807;28;20444;-64
2023/09/23 07:01:00;;;;;;;8.77;5.03;;;;;;;13.17;100.00;100425.16;6027690;28;20277;-63
2023/09/23 07:03:56;;;;;;;8.70;4.90;;;;;;;13.30;100.00;100433.44;6022293;28;20038;-63
2023/09/23 07:06:51;;;;;;;8.45;5.40;;;;;;;13.27;100.00;100431.13;6026865;28;20053;-63
2023/09/23 07:09:47;;;;;;;9.03;5.43;;;;;;;13.45;100.00;100440.56;6027010;28;20038;-63
2023/09/23 07:12:42;;;;;;;7.87;5.17;;;;;;;13.50;100.00;100450.72;6026959;28;20277;-63
2023/09/23 07:15:39;;;;;;;7.70;4.63;;;;;;;13.50;100.00;100438.22;6026801;28;20068;-64
2023/09/23 07:18:34;;;;;;;8.63;5.47;;;;;;;13.75;100.00;100462.97;6027190;28;20500;-63
2023/09/23 07:21:29;;;;;;;7.93;5.10;;;;;;;13.80;100.00;100459.78;6025386;28;20038;-64
2023/09/23 07:24:26;;;;;;;10.33;5.40;;;;;;;13.79;100.00;100463.44;6027219;28;20069;-64
2023/09/23 07:27:22;;;;;;;11.27;5.70;;;;;;;13.69;100.00;100455.66;6022169;28;20281;-64
2023/09/23 07:30:18;;;;;;;10.18;5.55;;;;;;;13.81;100.00;100485.41;6024240;28;20117;-63
2023/09/23 07:33:13;;;;;;;8.68;5.00;;;;;;;13.95;100.00;100498.00;6026483;28;20555;-63
2023/09/23 07:36:10;;;;;;;8.80;4.30;;;;;;;14.12;100.00;100484.44;6025143;28;20069;-64
2023/09/23 07:39:06;;;;;;;9.88;5.40;;;;;;;14.13;100.00;100504.75;6026615;28;20038;-63
2023/09/23 07:42:01;;;;;;;9.67;5.57;;;;;;;14.18;100.00;100529.09;6026282;28;20031;-63
2023/09/23 07:44:56;;;;;;;11.93;5.47;;;;;;;14.24;99.46;100517.72;6021321;28;20417;-63
2023/09/23 07:47:52;;;;;;;9.93;4.90;;;;;;;14.31;100.00;100515.19;6021322;28;20081;-64
2023/09/23 07:50:47;;;;;;;11.15;5.28;;;;;;;14.37;99.25;100501.19;6027114;28;20029;-63
2023/09/23 07:53:42;;;;;;;7.23;4.20;;;;;;;14.66;98.32;100535.19;6026256;28;20042;-64
2023/09/23 07:56:37;;;;;;;7.80;4.70;;;;;;;14.64;96.66;100534.53;6029036;28;20045;-63
2023/09/23 07:59:33;;;;;;;7.57;4.07;;;;;;;14.54;95.36;100531.28;6026516;28;20390;-63
2023/09/23 08:02:29;;;;;;;7.50;4.10;;;;;;;14.58;94.93;100556.59;6026257;28;20033;-64
2023/09/23 08:05:24;;;;;;;6.10;3.60;;;;;;;14.39;95.76;100546.34;6026751;28;20274;-64
2023/09/23 08:08:19;;;;;;;7.90;3.50;;;;;;;14.30;97.17;100556.19;6024839;28;20121;-64
2023/09/23 08:11:15;;;;;;;6.57;3.30;;;;;;;14.38;97.79;100566.06;6025666;28;20273;-65
2023/09/23 08:14:10;;;;;;;6.90;3.40;;;;;;;14.29;98.83;100555.34;6026447;28;20278;-64
2023/09/23 08:17:05;;;;;;;5.85;3.35;;;;;;;14.39;98.25;100568.53;6025166;28;20497;-64
2023/09/23 08:20:11;;;;;;;7.47;3.60;;;;;;;14.60;97.17;100589.25;6026156;28;20023;-64
2023/09/23 08:23:07;;;;;;;5.70;3.00;;;;;;;14.96;96.15;100601.06;6016806;28;20041;-64
2023/09/23 08:26:04;;;;;;;5.45;3.05;;;;;;;15.16;93.79;100607.63;6025365;28;20474;-64
2023/09/23 08:28:59;;;;;;;4.70;2.60;;;;;;;15.39;91.83;100616.44;6017214;28;20454;-64
2023/09/23 08:31:54;;;;;;;7.40;2.47;;;;;;;15.39;91.51;100621.78;6017886;28;20042;-64
2023/09/23 08:34:50;;;;;;;4.70;2.93;;;;;;;15.37;91.31;100626.50;6025681;28;20872;-64
2023/09/23 08:37:45;;;;;;;5.47;2.57;;;;;;;15.81;88.69;100617.78;6016910;28;20026;-63
2023/09/23 08:40:43;;;;;;;5.15;2.28;;;;;;;15.70;87.87;100635.09;6025785;28;20085;-63
2023/09/23 08:43:42;;;;;;;5.13;2.47;;;;;;;15.10;89.45;100632.38;6025124;28;20472;-64
2023/09/23 08:46:38;;;;;;;6.55;2.53;;;;;;;14.97;92.83;100637.47;6019332;28;20039;-64
2023/09/23 08:49:33;;;;;;;3.70;2.30;;;;;;;14.71;94.92;100618.22;6023473;28;20038;-63
2023/09/23 08:52:30;;;;;;;4.57;2.17;;;;;;;15.18;95.15;100645.66;6019183;28;20026;-64
2023/09/23 08:55:27;;;;;;;3.67;1.95;;;;;;;15.39;94.11;100631.63;6030202;28;20030;-64
2023/09/23 08:58:23;;;;;;;2.83;1.75;;;;;;;15.69;91.66;100621.91;6024532;28;20030;-64
2023/09/23 09:01:19;;;;;;;5.95;1.92;;;;;;;16.23;87.60;100641.22;6017060;28;20055;-64
2023/09/23 09:04:17;;;;;;;4.30;1.90;;;;;;;16.20;85.92;100634.41;6022115;28;20080;-64
2023/09/23 09:07:12;;;;;;;4.45;1.73;;;;;;;16.17;84.83;100639.31;6024889;28;20544;-64
2023/09/23 09:10:08;;;;;;;4.30;2.03;;;;;;;15.88;86.91;100632.91;6022458;28;20085;-63
2023/09/23 09:13:04;;;;;;;4.35;2.00;;;;;;;15.96;86.65;100650.72;6015621;28;20761;-63
2023/09/23 09:16:03;;;;;;;5.18;1.98;;;;;;;15.91;89.32;100670.00;6023020;28;20038;-64
2023/09/23 09:18:59;;;;;;;5.65;1.98;;;;;;;15.71;90.84;100649.31;6025141;28;20034;-64
2023/09/23 09:21:57;;;;;;;4.17;1.50;;;;;;;15.73;90.17;100676.69;6024657;28;20022;-63
2023/09/23 09:24:53;;;;;;;3.97;1.67;;;;;;;15.43;89.57;100671.22;6025104;28;20041;-64
2023/09/23 09:27:50;;;;;;;3.15;1.40;;;;;;;15.20;90.87;100674.84;6028768;28;20030;-63
2023/09/23 09:30:49;;;;;;;5.70;1.50;;;;;;;15.07;93.04;100694.16;6030276;28;20118;-64
2023/09/23 09:33:47;;;;;;;4.57;1.70;;;;;;;14.89;93.77;100698.91;6028005;28;20038;-64
2023/09/23 09:36:43;;;;;;;3.42;1.80;;;;;;;14.83;94.81;100688.94;6022588;28;20070;-64
2023/09/23 09:39:43;;;;;;;5.15;1.73;;;;;;;14.77;95.94;100689.63;6020925;28;20167;-64
2023/09/23 09:42:39;;;;;;;;;;;;;;;14.93;95.56;100713.56;6027105;28;20417;-64
2023/09/23 09:45:40;;;;;;;4.40;1.70;;;;;;;14.99;95.35;100715.56;6029180;28;19937;-64
2023/09/23 09:48:41;;;;;;;3.67;1.58;;;;;;;14.97;94.07;100714.91;6031277;28;20026;-64
2023/09/23 09:51:39;;;;;;;4.95;1.58;;;;;;;15.07;95.07;100720.03;6029578;28;20026;-65
2023/09/23 09:54:36;;;;;;;4.18;1.52;;;;;;;15.05;94.18;100698.00;6028515;28;20043;-64
2023/09/23 09:57:31;;;;;;;3.30;1.55;;;;;;;15.09;92.43;100726.00;6029344;28;20023;-64
2023/09/23 10:00:35;;;;;;;6.07;1.70;;;;;;;15.10;90.78;100723.19;6018129;28;20088;-64
2023/09/23 10:03:30;;;;;;;4.25;1.63;;;;;;;15.11;89.16;100727.50;6022237;28;20030;-64
2023/09/23 10:06:26;;;;;;;4.83;1.87;;;;;;;15.37;90.88;100730.72;6026160;28;20108;-63
2023/09/23 10:09:31;;;;;;;4.85;1.70;;;;;;;15.61;88.39;100731.56;6028147;28;20026;-64
2023/09/23 10:12:29;;;;;;;4.47;1.70;;;;;;;15.53;86.30;100699.56;6029064;28;20056;-63
2023/09/23 10:15:28;;;;;;;2.97;1.58;;;;;;;15.97;85.65;100729.97;6028598;28;20038;-64
2023/09/23 10:18:24;;;;;;;3.92;1.80;;;;;;;16.24;82.91;100721.34;6020405;28;20494;-64
2023/09/23 10:21:29;;;;;;;4.30;1.88;;;;;;;16.50;81.34;100711.03;6028119;28;20025;-63
2023/09/23 10:24:27;;;;;;;4.95;1.73;;;;;;;16.84;80.69;100715.00;6028512;28;20119;-64
2023/09/23 10:27:24;;;;;;;3.55;1.83;;;;;;;17.00;79.02;100710.28;6027749;28;20470;-64
2023/09/23 10:30:22;;;;;;;3.78;1.50;;;;;;;17.23;77.12;100721.69;6028495;28;20109;-64
2023/09/23 10:33:17;;;;;;;4.15;1.70;;;;;;;17.75;77.01;100725.97;6028247;28;20038;-64
2023/09/23 10:36:19;;;;;;;4.13;1.70;;;;;;;17.81;73.77;100704.56;6027329;28;20093;-64
2023/09/23 10:39:15;;;;;;;3.55;1.67;;;;;;;18.21;71.49;100704.88;6027598;28;20433;-64
2023/09/23 10:42:14;;;;;;;3.45;1.70;;;;;;;18.20;69.39;100720.19;6022482;28;20062;-64
2023/09/23 10:45:10;;;;;;;4.60;1.70;;;;;;;17.59;71.84;100721.69;6027825;28;20032;-64
2023/09/23 10:48:08;;;;;;;5.75;1.83;;;;;;;17.55;73.86;100731.16;6027796;28;20478;-65
2023/09/23 10:51:05;;;;;;;4.95;1.70;;;;;;;17.09;76.40;100732.44;6027647;28;20116;-64
2023/09/23 10:54:01;;;;;;;3.53;1.92;;;;;;;17.01;77.71;100724.53;6027720;28;20041;-64
2023/09/23 10:56:58;;;;;;;3.97;1.42;;;;;;;17.50;73.37;100727.34;6032381;28;20042;-64
2023/09/23 10:59:54;;;;;;;5.30;1.80;;;;;;;17.59;71.85;100731.56;6028008;28;20045;-64
2023/09/23 11:02:52;;;;;;;7.20;2.08;;;;;;;17.34;73.75;100732.94;6025202;28;20058;-64
2023/09/23 11:05:47;;;;;;;5.65;1.92;;;;;;;17.23;74.77;100737.75;6027016;28;20033;-64
2023/09/23 11:08:43;;;;;;;9.48;2.00;;;;;;;16.92;75.87;100741.69;6027749;28;20034;-64
2023/09/23 11:11:40;;;;;;;4.03;1.60;;;;;;;16.94;76.90;100742.34;6027287;28;20038;-64
2023/09/23 11:14:36;;;;;;;4.70;1.95;;;;;;;16.93;78.04;100740.69;6027274;28;20049;-64
2023/09/23 11:17:32;;;;;;;3.83;2.00;;;;;;;16.58;77.94;100737.72;6015359;28;20942;-64
2023/09/23 11:20:29;;;;;;;3.17;1.50;;;;;;;16.49;78.71;100749.53;6016637;28;20026;-64
2023/09/23 11:23:26;;;;;;;3.45;1.80;;;;;;;16.25;78.36;100740.91;6025284;28;20038;-63
2023/09/23 11:26:22;;;;;;;4.95;2.10;;;;;;;15.98;79.71;100745.00;6020989;28;20035;-64
2023/09/23 11:29:18;;;;;;;4.22;1.70;;;;;;;16.09;78.80;100745.38;6026918;28;20569;-63
2023/09/23 11:32:13;;;;;;;3.85;1.95;;;;;;;16.30;79.65;100755.41;6026226;28;20045;-64
2023/09/23 11:35:08;;;;;;;4.50;1.73;;;;;;;16.61;80.46;100750.75;6026584;28;20438;-64
2023/09/23 11:38:04;;;;;;;2.53;1.80;;;;;;;17.11;76.83;100759.88;6026058;28;20034;-64
2023/09/23 11:41:00;;;;;;;5.78;1.73;;;;;;;17.06;74.92;100751.56;6026116;28;20954;-63
2023/09/23 11:43:55;;;;;;;4.18;1.50;;;;;;;17.47;74.73;100763.41;6025995;28;20096;-64
2023/09/23 11:46:50;;;;;;;3.33;1.40;;;;;;;17.62;72.83;100752.66;6025544;28;20026;-64
2023/09/23 11:49:46;;;;;;;2.90;1.40;;;;;;;17.71;74.06;100781.88;6019452;28;20394;-64
2023/09/23 11:52:41;;;;;;;2.17;1.30;;;;;;;17.83;72.43;100764.22;6019082;28;20038;-64
2023/09/23 11:55:37;;;;;;;4.03;1.52;;;;;;;18.52;70.15;100760.91;6031259;28;20070;-64
2023/09/23 11:58:32;;;;;;;2.10;1.33;;;;;;;18.17;66.51;100778.78;6026417;28;20134;-64
2023/09/23 12:01:27;;;;;;;2.73;1.30;;;;;;;17.49;68.34;100776.63;6025698;28;20469;-65
2023/09/23 12:04:23;;;;;;;3.97;1.20;;;;;;;17.39;68.83;100781.47;6025017;28;20037;-64
2023/09/23 12:07:18;;;;;;;4.33;1.40;;;;;;;17.36;69.40;100774.63;6026273;28;20053;-64
2023/09/23 12:10:13;;;;;;;2.93;1.00;;;;;;;17.06;68.34;100778.38;6026101;28;20038;-64
2023/09/23 12:13:09;;;;;;;2.87;1.33;;;;;;;16.95;68.87;100782.34;6026041;28;20292;-64
2023/09/23 12:16:04;;;;;;;3.67;1.27;;;;;;;17.20;69.67;100764.13;6025907;28;20034;-65
2023/09/23 12:18:59;;;;;;;3.30;1.43;;;;;;;17.00;68.02;100757.69;6025743;28;20293;-65
2023/09/23 12:21:55;;;;;;;3.30;1.20;;;;;;;16.81;72.13;100779.66;6026101;28;20278;-64
2023/09/23 12:24:50;;;;;;;2.03;1.13;;;;;;;16.60;70.20;100789.25;6026032;28;20038;-64
2023/09/23 12:27:46;;;;;;;3.50;1.50;;;;;;;16.40;70.43;100776.56;6017795;28;20065;-64
2023/09/23 12:30:41;;;;;;;3.70;1.30;;;;;;;16.40;69.58;100781.91;6008751;28;20048;-65
2023/09/23 12:33:36;;;;;;;2.00;1.30;;;;;;;16.52;69.54;100786.63;6020154;28;20084;-64
2023/09/23 12:36:32;;;;;;;6.67;1.30;;;;;;;16.93;67.48;100794.28;6022771;28;20077;-65
2023/09/23 12:39:27;;;;;;;2.53;1.10;;;;;;;17.59;66.60;100793.25;6025125;28;20313;-64
2023/09/23 12:42:22;;;;;;;2.83;1.23;;;;;;;18.04;65.28;100792.09;6025518;28;20030;-64
2023/09/23 12:45:18;;;;;;;3.30;1.20;;;;;;;18.27;62.76;100806.13;6019850;28;20606;-64
2023/09/23 12:48:13;;;;;;;2.93;1.20;;;;;;;18.37;62.76;100801.28;6023026;28;20124;-64
2023/09/23 12:51:11;;;;;;;3.08;1.42;;;;;;;18.16;64.03;100793.22;6025561;28;20548;-64
2023/09/23 12:54:07;;;;;;;4.15;1.10;;;;;;;17.91;64.52;100797.34;6024759;28;20385;-65
2023/09/23 12:57:02;;;;;;;3.70;1.42;;;;;;;17.78;67.68;100798.00;6030829;28;20039;-64
2023/09/23 12:59:58;;;;;;;2.30;1.23;;;;;;;17.56;65.96;100813.25;6024417;28;20293;-64
2023/09/23 13:02:53;;;;;;;3.80;1.40;;;;;;;17.35;68.26;100807.81;6020503;28;20023;-65
2023/09/23 13:05:48;;;;;;;3.65;1.30;;;;;;;17.31;70.38;100814.59;6020405;28;20276;-65
2023/09/23 13:08:45;;;;;;;3.43;1.47;;;;;;;17.02;70.23;100799.34;6024449;28;20469;-64
2023/09/23 13:11:42;;;;;;;3.53;1.30;;;;;;;16.77;70.49;100816.69;6022412;28;20034;-64
2023/09/23 13:14:37;;;;;;;3.50;1.30;;;;;;;16.62;73.14;100813.19;6022159;28;20033;-64
2023/09/23 13:17:33;;;;;;;3.03;1.23;;;;;;;16.69;74.41;100818.66;6023966;28;20517;-64
2023/09/23 13:20:28;;;;;;;5.03;1.48;;;;;;;16.81;74.85;100817.16;6025267;28;20033;-64
2023/09/23 13:23:23;;;;;;;3.92;1.40;;;;;;;16.85;75.07;100824.66;6021169;28;20034;-65
2023/09/23 13:26:20;;;;;;;4.87;1.40;;;;;;;16.92;74.46;100835.47;6011184;28;20049;-65
2023/09/23 13:29:16;;;;;;;3.92;1.52;;;;;;;17.07;74.53;100834.44;6023769;28;20045;-64
2023/09/23 13:32:12;;;;;;;3.70;1.60;;;;;;;17.42;71.83;100832.84;6021244;28;20027;-64
2023/09/23 13:35:09;;;;;;;3.45;1.38;;;;;;;17.56;69.74;100832.03;6022442;28;20041;-64